Time;durP1;ratioP1;P1;durP2;ratioP2;P2;SDS_P1;SDS_P2;PMS_P1;PMS_P2;Temp;Humidity;BMP_temperature;BMP_pressure;BME280_temperature;BME280_humidity;BME280_pressure;Samples;Min_cycle;Max_cycle;Signal;HPM_P1;HPM_P2
2023/08/25 00:00:59;;;;;;;5.67;2.70;;;;;;;20.88;100.00;97737.78;5053585;28;20205;-74
2023/08/25 00:03:25;;;;;;;3.40;2.83;;;;;;;20.93;100.00;97745.84;5053073;28;20563;-74
2023/08/25 00:05:53;;;;;;;3.50;2.57;;;;;;;20.93;100.00;97742.34;5053113;28;20716;-74
2023/08/25 00:08:19;;;;;;;4.80;3.00;;;;;;;20.92;100.00;97743.44;5053444;28;20209;-74
2023/08/25 00:10:46;;;;;;;4.73;3.10;;;;;;;20.81;100.00;97740.06;5053529;28;20235;-74
2023/08/25 00:13:13;;;;;;;4.60;2.73;;;;;;;20.78;100.00;97747.91;5053419;28;20217;-74
2023/08/25 00:15:41;;;;;;;3.53;2.77;;;;;;;20.81;100.00;97747.34;5053530;28;20558;-74
2023/08/25 00:18:07;;;;;;;2.67;2.53;;;;;;;20.82;100.00;97744.34;5053462;28;20239;-73
2023/08/25 00:20:34;;;;;;;2.97;2.63;;;;;;;20.84;100.00;97750.25;5053380;28;20298;-74
2023/08/25 00:23:00;;;;;;;3.17;2.70;;;;;;;20.89;100.00;97758.28;5053069;28;20267;-74
2023/08/25 00:25:27;;;;;;;4.43;2.70;;;;;;;20.91;100.00;97758.03;5053108;28;20677;-73
2023/08/25 00:27:53;;;;;;;3.50;3.00;;;;;;;20.96;100.00;97744.44;5053415;28;20212;-74
2023/08/25 00:30:20;;;;;;;7.93;2.90;;;;;;;20.87;100.00;97744.28;5054327;28;20225;-74
2023/08/25 00:32:46;;;;;;;3.30;2.90;;;;;;;20.80;100.00;97749.22;5053334;28;20288;-74
2023/08/25 00:35:12;;;;;;;5.07;2.63;;;;;;;20.81;100.00;97742.75;5053177;28;20319;-73
2023/08/25 00:37:39;;;;;;;4.97;2.90;;;;;;;20.82;100.00;97748.94;5055467;28;20205;-74
2023/08/25 00:40:06;;;;;;;3.00;2.80;;;;;;;20.74;100.00;97736.91;5056904;28;20233;-74
2023/08/25 00:42:32;;;;;;;4.27;2.63;;;;;;;20.77;100.00;97736.31;5057466;28;20248;-74
2023/08/25 00:44:58;;;;;;;4.93;2.30;;;;;;;20.74;100.00;97725.28;5057108;28;20201;-73
2023/08/25 00:47:25;;;;;;;3.63;2.43;;;;;;;20.74;100.00;97719.88;5057098;28;20296;-74
2023/08/25 00:49:53;;;;;;;3.13;2.50;;;;;;;20.76;100.00;97715.78;5056631;28;20592;-73
2023/08/25 00:52:21;;;;;;;2.90;2.67;;;;;;;20.73;100.00;97711.00;5056964;28;20205;-74
2023/08/25 00:54:50;;;;;;;5.50;2.90;;;;;;;20.72;100.00;97712.09;5056583;28;20231;-74
2023/08/25 00:57:17;;;;;;;2.90;2.60;;;;;;;20.71;100.00;97702.34;5056881;28;20205;-73
2023/08/25 00:59:45;;;;;;;3.83;2.70;;;;;;;20.72;100.00;97717.50;5056808;28;20583;-73
2023/08/25 01:02:12;;;;;;;3.63;2.97;;;;;;;20.74;100.00;97715.28;5056790;28;20240;-73
2023/08/25 01:04:39;;;;;;;3.40;2.60;;;;;;;20.74;100.00;97709.88;5056442;28;20207;-73
2023/08/25 01:07:05;;;;;;;4.10;2.40;;;;;;;20.75;100.00;97718.81;5056675;28;20212;-73
2023/08/25 01:09:34;;;;;;;5.47;2.60;;;;;;;20.75;100.00;97724.22;5056556;28;20225;-73
2023/08/25 01:12:17;;;;;;;5.10;2.90;;;;;;;20.75;100.00;97724.22;5056606;28;20292;-73
2023/08/25 01:14:54;;;;;;;3.90;2.80;;;;;;;20.69;100.00;97715.38;5056516;28;20220;-73
2023/08/25 01:17:37;;;;;;;2.40;2.20;;;;;;;20.67;100.00;97728.34;5056483;28;20221;-74
2023/08/25 01:20:06;;;;;;;3.90;2.60;;;;;;;20.65;100.00;97722.44;5040818;28;20236;-74
2023/08/25 01:23:01;;;;;;;3.63;2.47;;;;;;;20.57;100.00;97717.69;5056453;28;20205;-74
2023/08/25 01:25:30;;;;;;;4.00;2.47;;;;;;;20.52;100.00;97714.25;5056429;28;20303;-74
2023/08/25 01:28:03;;;;;;;3.27;2.20;;;;;;;20.59;100.00;97717.41;5056603;28;20201;-73
2023/08/25 01:30:31;;;;;;;5.23;2.90;;;;;;;20.63;100.00;97724.63;5056340;28;20247;-74
2023/08/25 01:32:58;;;;;;;2.60;2.40;;;;;;;20.55;100.00;97709.06;5055888;28;20618;-74
2023/08/25 01:35:58;;;;;;;4.07;2.40;;;;;;;20.54;100.00;97720.16;5055768;28;20225;-74
2023/08/25 01:38:30;;;;;;;2.80;2.60;;;;;;;20.59;100.00;97720.91;5056064;28;20194;-74
2023/08/25 01:41:10;;;;;;;5.13;2.97;;;;;;;20.70;100.00;97716.19;5055706;28;20560;-74
2023/08/25 01:43:39;;;;;;;4.57;2.70;;;;;;;20.71;100.00;97720.47;5056072;28;20193;-73
2023/08/25 01:46:10;;;;;;;5.53;3.00;;;;;;;20.76;100.00;97723.09;5056032;28;20227;-74
2023/08/25 01:48:37;;;;;;;5.60;2.20;;;;;;;20.77;100.00;97720.13;5055831;28;20629;-74
2023/08/25 01:51:05;;;;;;;3.27;2.43;;;;;;;20.95;100.00;97721.22;5055561;28;20247;-74
2023/08/25 01:53:33;;;;;;;2.53;2.33;;;;;;;20.93;100.00;97723.44;5055889;28;20213;-74
2023/08/25 01:55:59;;;;;;;4.00;2.57;;;;;;;20.96;100.00;97717.44;5055766;28;20201;-73
2023/08/25 01:58:25;;;;;;;5.43;2.33;;;;;;;21.00;100.00;97719.25;5055360;28;20209;-73
2023/08/25 02:00:52;;;;;;;6.20;2.40;;;;;;;21.09;100.00;97719.41;5055700;28;20201;-73
2023/08/25 02:03:18;;;;;;;4.60;2.40;;;;;;;21.05;100.00;97731.88;5055660;28;20205;-73
2023/08/25 02:05:44;;;;;;;3.93;2.40;;;;;;;21.05;100.00;97715.66;5055626;28;20197;-73
2023/08/25 02:08:11;;;;;;;3.90;2.40;;;;;;;21.03;100.00;97710.56;5055727;28;20205;-73
2023/08/25 02:10:37;;;;;;;2.60;2.30;;;;;;;21.15;100.00;97718.22;5055139;28;20229;-73
2023/08/25 02:13:04;;;;;;;3.53;2.43;;;;;;;21.11;100.00;97709.88;5055090;28;20672;-73
2023/08/25 02:15:30;;;;;;;4.33;2.37;;;;;;;21.16;100.00;97709.03;5054968;28;20594;-73
2023/08/25 02:17:57;;;;;;;3.53;2.30;;;;;;;21.26;100.00;97706.94;5055455;28;20201;-73
2023/08/25 02:20:25;;;;;;;2.43;2.23;;;;;;;21.22;100.00;97711.34;5054955;28;20735;-73
2023/08/25 02:22:51;;;;;;;4.50;2.37;;;;;;;21.24;100.00;97700.22;5055068;28;20594;-73
2023/08/25 02:25:17;;;;;;;6.13;2.30;;;;;;;21.15;100.00;97689.28;5055219;28;20201;-73
2023/08/25 02:27:44;;;;;;;2.83;2.40;;;;;;;21.07;100.00;97695.34;5055265;28;20205;-73
2023/08/25 02:30:11;;;;;;;4.03;2.30;;;;;;;20.98;100.00;97699.03;5055098;28;20225;-73
2023/08/25 02:32:37;;;;;;;3.73;2.40;;;;;;;20.96;100.00;97693.91;5055140;28;20205;-73
2023/08/25 02:35:04;;;;;;;2.53;2.20;;;;;;;20.97;100.00;97702.81;5054701;28;20221;-73
2023/08/25 02:37:30;;;;;;;3.87;2.27;;;;;;;21.08;100.00;97693.47;5054997;28;20213;-73
2023/08/25 02:39:57;;;;;;;2.43;2.23;;;;;;;21.20;100.00;97691.13;5054635;28;20255;-73
2023/08/25 02:42:23;;;;;;;6.10;2.30;;;;;;;21.13;100.00;97685.28;5054956;28;20205;-73
2023/08/25 02:44:51;;;;;;;2.73;2.20;;;;;;;21.11;100.00;97679.38;5054710;28;20205;-73
2023/08/25 02:47:17;;;;;;;3.03;2.20;;;;;;;21.14;100.00;97673.34;5054678;28;20205;-73
2023/08/25 02:49:44;;;;;;;5.10;2.43;;;;;;;21.12;100.00;97678.25;5053977;28;20233;-74
2023/08/25 02:52:10;;;;;;;4.80;2.20;;;;;;;21.08;100.00;97667.25;5054133;28;20664;-74
2023/08/25 02:54:36;;;;;;;5.60;2.47;;;;;;;20.99;100.00;97673.59;5054204;28;20218;-74
2023/08/25 02:57:03;;;;;;;2.83;2.50;;;;;;;21.02;100.00;97667.63;5054592;28;20288;-74
2023/08/25 02:59:29;;;;;;;4.63;2.20;;;;;;;21.03;100.00;97669.22;5053979;28;20233;-74
2023/08/25 03:01:55;;;;;;;3.83;2.37;;;;;;;21.03;100.00;97663.81;5037201;28;20202;-76
2023/08/25 03:04:22;;;;;;;3.90;2.50;;;;;;;21.06;100.00;97660.50;5034607;28;20201;-76
2023/08/25 03:06:49;;;;;;;4.67;2.47;;;;;;;20.98;100.00;97653.88;5034468;28;20202;-76
2023/08/25 03:09:16;;;;;;;3.87;2.67;;;;;;;20.91;100.00;97656.16;5034374;28;20225;-76
2023/08/25 03:11:42;;;;;;;3.90;2.40;;;;;;;20.97;100.00;97654.16;5034666;28;20205;-76
2023/08/25 03:14:08;;;;;;;3.13;2.60;;;;;;;20.92;100.00;97656.94;5034064;28;20205;-76
2023/08/25 03:16:35;;;;;;;4.73;2.50;;;;;;;20.93;100.00;97648.56;5034379;28;20220;-76
2023/08/25 03:19:01;;;;;;;4.27;2.50;;;;;;;20.88;100.00;97655.91;5034220;28;20222;-76
2023/08/25 03:21:27;;;;;;;2.80;2.50;;;;;;;20.91;100.00;97650.75;5034577;28;20209;-76
2023/08/25 03:23:54;;;;;;;4.13;2.53;;;;;;;20.95;100.00;97640.16;5034172;28;20210;-76
2023/08/25 03:26:20;;;;;;;3.40;2.50;;;;;;;21.02;100.00;97646.00;5034275;28;20198;-76
2023/08/25 03:28:46;;;;;;;5.37;2.63;;;;;;;21.04;100.00;97636.50;5033689;28;20585;-76
2023/08/25 03:31:13;;;;;;;4.17;2.53;;;;;;;21.07;100.00;97635.09;5034782;28;20684;-76
2023/08/25 03:33:39;;;;;;;4.90;2.60;;;;;;;21.05;100.00;97627.28;5033560;28;20213;-76
2023/08/25 03:36:06;;;;;;;3.57;2.50;;;;;;;21.08;100.00;97625.88;5033776;28;20232;-76
2023/08/25 03:38:32;;;;;;;4.20;2.60;;;;;;;21.05;100.00;97627.28;5034113;28;20244;-76
2023/08/25 03:41:00;;;;;;;2.60;2.40;;;;;;;21.07;100.00;97632.41;5033604;28;20214;-76
2023/08/25 03:43:27;;;;;;;5.97;2.70;;;;;;;21.04;100.00;97630.28;5033468;28;20217;-76
2023/08/25 03:45:53;;;;;;;5.27;2.50;;;;;;;21.02;100.00;97627.09;5033214;28;20201;-76
2023/08/25 03:48:21;;;;;;;4.37;2.80;;;;;;;21.04;100.00;97623.00;5033572;28;20216;-76
2023/08/25 03:50:48;;;;;;;4.13;2.30;;;;;;;21.18;100.00;97613.00;5033332;28;20568;-76
2023/08/25 03:53:15;;;;;;;5.53;2.73;;;;;;;21.16;100.00;97611.69;5033642;28;20206;-76
2023/08/25 03:55:41;;;;;;;3.57;2.60;;;;;;;21.07;100.00;97597.25;5033212;28;20589;-76
2023/08/25 03:58:08;;;;;;;3.90;2.50;;;;;;;21.02;100.00;97598.13;5033329;28;20577;-76
2023/08/25 04:00:34;;;;;;;5.73;2.50;;;;;;;20.96;100.00;97596.63;5033400;28;20233;-76
2023/08/25 04:03:01;;;;;;;2.63;2.40;;;;;;;20.99;100.00;97593.34;5033955;28;20220;-76
2023/08/25 04:05:27;;;;;;;4.00;2.67;;;;;;;20.94;100.00;97590.69;5033326;28;20198;-76
2023/08/25 04:07:55;;;;;;;4.20;2.30;;;;;;;20.94;100.00;97589.91;5040745;28;20197;-76
2023/08/25 04:10:22;;;;;;;3.83;2.50;;;;;;;20.95;100.00;97588.81;5052066;28;20722;-76
2023/08/25 04:12:48;;;;;;;4.33;2.57;;;;;;;21.01;100.00;97584.91;5052832;28;20212;-76
2023/08/25 04:15:14;;;;;;;4.07;2.40;;;;;;;21.01;100.00;97574.91;5053105;28;20221;-76
2023/08/25 04:17:41;;;;;;;3.83;2.43;;;;;;;21.00;100.00;97564.41;5053122;28;20203;-76
2023/08/25 04:20:08;;;;;;;5.27;2.53;;;;;;;21.14;100.00;97570.63;5053147;28;20221;-76
2023/08/25 04:22:36;;;;;;;3.73;2.70;;;;;;;21.11;100.00;97568.53;5052615;28;20203;-76
2023/08/25 04:25:02;;;;;;;5.43;2.67;;;;;;;21.04;100.00;97574.34;5036855;28;20206;-76
2023/08/25 04:27:29;;;;;;;4.80;2.43;;;;;;;21.03;100.00;97572.72;5036113;28;20247;-76
2023/08/25 04:29:56;;;;;;;5.53;2.60;;;;;;;21.01;100.00;97576.81;5052543;28;20217;-76
2023/08/25 04:32:22;;;;;;;5.87;2.70;;;;;;;20.93;100.00;97572.88;5052113;28;20203;-76
2023/08/25 04:34:49;;;;;;;3.80;2.57;;;;;;;20.93;100.00;97574.81;5050965;28;20688;-76
2023/08/25 04:37:15;;;;;;;3.23;2.50;;;;;;;20.93;100.00;97569.41;5051622;28;20205;-76
2023/08/25 04:39:42;;;;;;;4.03;2.43;;;;;;;20.87;100.00;97565.94;5051205;28;20225;-77
2023/08/25 04:42:08;;;;;;;6.37;2.77;;;;;;;20.98;100.00;97566.59;5052560;28;20201;-76
2023/08/25 04:44:35;;;;;;;2.73;2.50;;;;;;;20.96;100.00;97563.38;5052426;28;20209;-76
2023/08/25 04:47:02;;;;;;;4.57;3.00;;;;;;;20.95;100.00;97557.19;5049929;28;20795;-76
2023/08/25 04:49:29;;;;;;;3.57;2.40;;;;;;;20.97;100.00;97552.28;5044686;28;20229;-76
2023/08/25 04:51:55;;;;;;;4.23;2.30;;;;;;;21.00;100.00;97556.28;5050588;28;20224;-76
2023/08/25 04:54:22;;;;;;;4.03;2.87;;;;;;;21.03;100.00;97555.72;5050586;28;20749;-76
2023/08/25 04:56:48;;;;;;;4.40;2.47;;;;;;;21.08;100.00;97550.22;5049263;28;20231;-76
2023/08/25 04:59:14;;;;;;;5.33;2.70;;;;;;;21.04;100.00;97546.50;5050347;28;20225;-76
2023/08/25 05:01:41;;;;;;;4.93;2.50;;;;;;;21.06;100.00;97549.69;5051651;28;20205;-76
2023/08/25 05:04:08;;;;;;;3.00;2.73;;;;;;;21.04;100.00;97546.50;5052322;28;20209;-77
2023/08/25 05:06:35;;;;;;;5.33;2.67;;;;;;;21.12;100.00;97548.50;5052945;28;20240;-76
2023/08/25 05:09:01;;;;;;;3.07;2.47;;;;;;;21.17;100.00;97548.41;5052402;28;20225;-76
2023/08/25 05:11:27;;;;;;;5.67;2.80;;;;;;;21.20;100.00;97537.03;5052478;28;20668;-76
2023/08/25 05:13:54;;;;;;;5.17;3.03;;;;;;;21.15;100.00;97527.09;5052524;28;20560;-77
2023/08/25 05:16:20;;;;;;;3.00;2.70;;;;;;;21.23;100.00;97528.28;5052496;28;20229;-76
2023/08/25 05:18:47;;;;;;;3.07;2.60;;;;;;;21.35;100.00;97525.91;5052573;28;20267;-74
2023/08/25 05:21:15;;;;;;;3.43;2.33;;;;;;;21.45;100.00;97531.91;5052830;28;20377;-74
2023/08/25 05:23:46;;;;;;;4.30;3.00;;;;;;;21.41;100.00;97544.44;5055312;28;20212;-74
2023/08/25 05:26:14;;;;;;;3.70;2.50;;;;;;;21.47;100.00;97550.56;5056130;28;20201;-74
2023/08/25 05:28:40;;;;;;;4.43;2.70;;;;;;;21.50;100.00;97539.13;5055981;28;20229;-74
2023/08/25 05:31:08;;;;;;;3.67;2.37;;;;;;;21.60;100.00;97547.03;5055880;28;20212;-74
2023/08/25 05:33:35;;;;;;;3.43;3.13;;;;;;;21.72;100.00;97541.94;5056072;28;20231;-74
2023/08/25 05:36:02;;;;;;;5.70;2.60;;;;;;;21.79;100.00;97547.75;5055746;28;20217;-74
2023/08/25 05:38:28;;;;;;;5.50;3.00;;;;;;;21.75;100.00;97549.47;5055899;28;20213;-75
2023/08/25 05:40:55;;;;;;;3.73;2.70;;;;;;;21.74;100.00;97555.97;5055591;28;20209;-74
2023/08/25 05:43:21;;;;;;;4.67;2.90;;;;;;;21.85;100.00;97562.78;5055885;28;20205;-74
2023/08/25 05:45:48;;;;;;;4.10;2.47;;;;;;;21.97;100.00;97571.19;5055866;28;20207;-74
2023/08/25 05:48:14;;;;;;;3.13;2.57;;;;;;;22.03;100.00;97589.72;5055796;28;20205;-74
2023/08/25 05:50:40;;;;;;;5.13;2.60;;;;;;;21.97;100.00;97601.75;5055794;28;20205;-74
2023/08/25 05:53:07;;;;;;;5.28;2.50;;;;;;;22.06;100.00;97610.75;5055585;28;20211;-74
2023/08/25 05:55:34;;;;;;;4.10;2.50;;;;;;;22.13;100.00;97621.19;5055585;28;20236;-74
2023/08/25 05:58:01;;;;;;;3.17;2.63;;;;;;;22.20;100.00;97625.09;5055557;28;20619;-74
2023/08/25 06:00:27;;;;;;;2.65;2.45;;;;;;;22.18;100.00;97638.13;5055633;28;20229;-74
2023/08/25 06:02:54;;;;;;;3.47;2.50;;;;;;;22.06;100.00;97642.47;5055362;28;20210;-74
2023/08/25 06:05:20;;;;;;;4.97;2.58;;;;;;;22.11;100.00;97647.78;5055579;28;20208;-74
2023/08/25 06:07:47;;;;;;;4.85;2.58;;;;;;;22.11;100.00;97661.31;5056451;28;20208;-74
2023/08/25 06:10:13;;;;;;;3.83;2.75;;;;;;;22.08;100.00;97684.38;5055920;28;20734;-74
2023/08/25 06:12:39;;;;;;;6.35;2.75;;;;;;;22.07;100.00;97726.06;5055287;28;20215;-74
2023/08/25 06:15:06;;;;;;;5.45;3.00;;;;;;;21.90;100.00;97793.53;5055072;28;20221;-74
2023/08/25 06:17:33;;;;;;;7.20;3.07;;;;;;;21.98;100.00;97792.06;5055011;28;20212;-74
2023/08/25 06:19:59;;;;;;;4.80;3.00;;;;;;;22.03;100.00;97836.06;5055060;28;20248;-74
2023/08/25 06:22:25;;;;;;;4.27;2.53;;;;;;;22.05;100.00;97849.31;5055147;28;20205;-74
2023/08/25 06:24:52;;;;;;;8.60;2.83;;;;;;;22.08;100.00;97844.13;5055104;28;20205;-74
2023/08/25 06:27:18;;;;;;;4.03;2.87;;;;;;;22.18;100.00;97848.53;5063979;28;20225;-73
2023/08/25 06:29:45;;;;;;;7.77;3.47;;;;;;;22.11;100.00;97834.59;5064854;28;20224;-74
2023/08/25 06:32:14;;;;;;;10.00;3.20;;;;;;;22.11;100.00;97848.91;5064453;28;20233;-76
2023/08/25 06:34:40;;;;;;;5.53;2.80;;;;;;;22.09;100.00;97843.00;5053685;28;20208;-75
2023/08/25 06:37:07;;;;;;;6.77;3.33;;;;;;;22.03;100.00;97846.09;5054056;28;20590;-75
2023/08/25 06:39:33;;;;;;;6.67;3.00;;;;;;;22.02;100.00;97869.66;5054391;28;20236;-75
2023/08/25 06:42:00;;;;;;;11.70;10.30;;;;;;;22.03;100.00;97855.00;5054751;28;20215;-73
2023/08/25 06:44:26;;;;;;;5.67;5.13;;;;;;;21.86;100.00;97851.25;5054709;28;20236;-73
2023/08/25 06:46:54;;;;;;;7.70;4.60;;;;;;;21.89;100.00;97858.81;5054627;28;20233;-73
2023/08/25 06:49:20;;;;;;;5.03;3.37;;;;;;;21.82;100.00;97861.88;5054488;28;20236;-73
2023/08/25 06:51:47;;;;;;;6.57;4.73;;;;;;;21.72;100.00;97856.63;5054462;28;20205;-73
2023/08/25 06:54:13;;;;;;;10.10;7.50;;;;;;;21.69;100.00;97864.47;5054578;28;20255;-73
2023/08/25 06:56:39;;;;;;;7.87;4.83;;;;;;;21.48;100.00;97853.16;5054492;28;20231;-73
2023/08/25 06:59:06;;;;;;;7.20;5.03;;;;;;;21.38;100.00;97856.03;5054532;28;20231;-71
2023/08/25 07:01:34;;;;;;;7.80;3.50;;;;;;;21.12;100.00;97851.28;5054106;28;20213;-72
2023/08/25 07:04:00;;;;;;;4.70;3.77;;;;;;;20.90;100.00;97832.06;5054463;28;20212;-72
2023/08/25 07:06:27;;;;;;;5.77;3.73;;;;;;;20.61;100.00;97820.56;5054330;28;20206;-72
2023/08/25 07:08:53;;;;;;;4.60;3.60;;;;;;;20.50;100.00;97809.06;5054401;28;20322;-72
2023/08/25 07:11:20;;;;;;;7.00;4.00;;;;;;;20.43;100.00;97821.31;5054267;28;20209;-71
2023/08/25 07:13:47;;;;;;;5.83;3.63;;;;;;;20.41;100.00;97818.09;5054217;28;20286;-72
2023/08/25 07:16:13;;;;;;;5.77;3.90;;;;;;;20.43;100.00;97805.91;5054088;28;20563;-72
2023/08/25 07:18:39;;;;;;;6.00;4.10;;;;;;;20.34;100.00;97807.63;5053946;28;20229;-72
2023/08/25 07:21:06;;;;;;;5.63;4.07;;;;;;;20.30;100.00;97832.78;5054126;28;20205;-72
2023/08/25 07:23:32;;;;;;;9.43;4.53;;;;;;;20.26;100.00;97846.03;5054095;28;20215;-72
2023/08/25 07:25:59;;;;;;;5.23;3.93;;;;;;;20.29;100.00;97858.16;5053874;28;20208;-71
2023/08/25 07:28:25;;;;;;;7.10;5.50;;;;;;;20.25;100.00;97894.94;5053400;28;20575;-72
2023/08/25 07:30:52;;;;;;;9.20;4.93;;;;;;;20.18;100.00;97905.25;5053602;28;20205;-72
2023/08/25 07:33:19;;;;;;;9.50;4.90;;;;;;;20.07;100.00;97903.72;5053748;28;20209;-72
2023/08/25 07:35:46;;;;;;;8.43;5.47;;;;;;;20.12;100.00;97892.91;5053391;28;20723;-71
2023/08/25 07:38:13;;;;;;;6.67;4.60;;;;;;;20.11;100.00;97913.66;5053410;28;20239;-71
2023/08/25 07:40:40;;;;;;;5.17;4.60;;;;;;;20.06;100.00;97929.88;5053300;28;20217;-71
2023/08/25 07:43:06;;;;;;;7.20;5.07;;;;;;;20.08;100.00;97943.09;5053526;28;20205;-71
2023/08/25 07:45:33;;;;;;;6.77;5.23;;;;;;;20.10;100.00;97949.03;5054048;28;20233;-72
2023/08/25 07:48:01;;;;;;;6.00;5.00;;;;;;;20.07;100.00;97952.28;5053572;28;20205;-71
2023/08/25 07:50:31;;;;;;;10.40;4.90;;;;;;;20.06;100.00;97958.75;5053251;28;20787;-71
2023/08/25 07:52:59;;;;;;;5.40;4.70;;;;;;;20.05;100.00;97968.75;5053556;28;20212;-71
2023/08/25 07:55:26;;;;;;;5.27;4.63;;;;;;;20.03;100.00;98000.59;5053492;28;20506;-71
2023/08/25 07:57:53;;;;;;;7.23;4.70;;;;;;;19.95;100.00;97989.59;5053392;28;20259;-71
2023/08/25 08:00:20;;;;;;;6.27;4.90;;;;;;;20.02;100.00;97995.50;5053502;28;20228;-72
2023/08/25 08:02:48;;;;;;;6.17;4.77;;;;;;;20.01;100.00;97980.38;5053520;28;20211;-71
2023/08/25 08:05:15;;;;;;;8.47;5.13;;;;;;;19.94;100.00;97966.41;5053150;28;20215;-71
2023/08/25 08:07:43;;;;;;;9.63;5.27;;;;;;;19.88;100.00;97975.59;5053457;28;20263;-71
2023/08/25 08:10:10;;;;;;;6.97;3.63;;;;;;;19.96;100.00;97969.63;5052938;28;20746;-71
2023/08/25 08:12:36;;;;;;;5.13;3.70;;;;;;;19.89;100.00;97974.56;5053308;28;20209;-71
2023/08/25 08:15:04;;;;;;;9.10;4.17;;;;;;;19.95;100.00;97960.75;5053330;28;20205;-71
2023/08/25 08:17:31;;;;;;;4.77;3.80;;;;;;;19.93;100.00;97937.81;5053093;28;20700;-71
2023/08/25 08:19:58;;;;;;;7.20;3.90;;;;;;;19.91;100.00;97957.00;5053209;28;20251;-70
2023/08/25 08:22:25;;;;;;;7.37;4.20;;;;;;;19.94;100.00;97966.41;5052577;28;20220;-70
2023/08/25 08:24:51;;;;;;;5.00;3.90;;;;;;;19.97;100.00;97965.84;5050136;28;20193;-70
2023/08/25 08:27:18;;;;;;;4.53;3.83;;;;;;;20.01;100.00;97975.81;5052488;28;20564;-71
2023/08/25 08:29:46;;;;;;;5.17;3.80;;;;;;;20.09;100.00;97980.63;5052769;28;20304;-71
2023/08/25 08:32:14;;;;;;;8.33;4.97;;;;;;;20.10;100.00;97973.34;5050350;28;20198;-70
2023/08/25 08:34:40;;;;;;;6.60;4.70;;;;;;;20.09;100.00;97952.84;5052641;28;20200;-70
2023/08/25 08:37:06;;;;;;;6.23;4.33;;;;;;;20.11;100.00;97932.56;5052576;28;21273;-70
2023/08/25 08:39:34;;;;;;;6.67;3.77;;;;;;;20.04;100.00;97905.09;5049684;28;20220;-70
2023/08/25 08:42:02;;;;;;;5.03;3.77;;;;;;;20.13;100.00;97864.81;5052670;28;20207;-70
2023/08/25 08:44:30;;;;;;;5.13;3.73;;;;;;;20.12;100.00;97863.22;5052676;28;20347;-70
2023/08/25 08:46:57;;;;;;;7.80;4.50;;;;;;;20.22;100.00;97836.94;5034829;28;20243;-71
2023/08/25 08:49:27;;;;;;;7.57;3.97;;;;;;;20.26;100.00;97829.06;5052622;28;20227;-71
2023/08/25 08:51:57;;;;;;;6.23;4.57;;;;;;;20.29;100.00;97804.97;5050248;28;20293;-71
2023/08/25 08:54:27;;;;;;;5.83;3.97;;;;;;;20.39;100.00;97777.06;5052827;28;20197;-72
2023/08/25 08:56:54;;;;;;;7.67;5.40;;;;;;;20.31;100.00;97769.59;5049965;28;20221;-71
2023/08/25 08:59:22;;;;;;;5.27;4.10;;;;;;;20.27;100.00;97747.78;5055394;28;20225;-72
2023/08/25 09:01:53;;;;;;;6.43;4.93;;;;;;;20.31;100.00;97748.81;5055694;28;20212;-72
2023/08/25 09:04:24;;;;;;;7.20;4.00;;;;;;;20.23;100.00;97740.53;5056007;28;20211;-72
2023/08/25 09:06:52;;;;;;;7.90;3.97;;;;;;;20.23;100.00;97730.53;5056397;28;20192;-72
2023/08/25 09:09:20;;;;;;;7.20;4.27;;;;;;;20.33;100.00;97760.13;5056365;28;20221;-72
2023/08/25 09:11:47;;;;;;;7.77;4.70;;;;;;;20.39;100.00;97777.84;5056106;28;20672;-71
2023/08/25 09:14:23;;;;;;;11.13;5.20;;;;;;;20.51;100.00;97755.84;5055967;28;20201;-71
2023/08/25 09:16:49;;;;;;;8.63;5.37;;;;;;;20.48;100.00;97745.63;5056387;28;20217;-71
2023/08/25 09:19:16;;;;;;;9.07;6.17;;;;;;;20.56;100.00;97751.19;5056151;28;20235;-71
2023/08/25 09:21:46;;;;;;;5.73;4.57;;;;;;;20.56;100.00;97734.16;5056313;28;20212;-70
2023/08/25 09:24:18;;;;;;;5.57;4.13;;;;;;;20.64;100.00;97730.81;5056011;28;20259;-70
2023/08/25 09:26:46;;;;;;;5.63;3.63;;;;;;;20.54;100.00;97733.66;5055925;28;20182;-70
2023/08/25 09:29:12;;;;;;;6.47;4.10;;;;;;;20.80;100.00;97735.72;5056034;28;20241;-70
2023/08/25 09:31:39;;;;;;;4.10;3.70;;;;;;;20.89;100.00;97714.28;5055833;28;20205;-70
2023/08/25 09:34:10;;;;;;;4.43;4.00;;;;;;;20.88;100.00;97708.06;5056096;28;20216;-70
2023/08/25 09:36:52;;;;;;;7.57;4.00;;;;;;;21.23;100.00;97674.28;5055676;28;20239;-70
2023/08/25 09:39:19;;;;;;;9.00;8.10;;;;;;;21.19;100.00;97670.56;5055726;28;20363;-70
2023/08/25 09:41:46;;;;;;;6.20;4.43;;;;;;;21.19;100.00;97684.09;5055803;28;20190;-71
2023/08/25 09:44:13;;;;;;;6.67;3.83;;;;;;;21.28;100.00;97690.41;5055262;28;20213;-70
2023/08/25 09:46:40;;;;;;;5.63;3.60;;;;;;;21.43;100.00;97688.25;5055637;28;20278;-70
2023/08/25 09:49:08;;;;;;;4.03;3.70;;;;;;;21.32;100.00;97694.16;5055263;28;20619;-70
2023/08/25 09:51:47;;;;;;;4.23;3.40;;;;;;;21.32;100.00;97689.53;5055318;28;20672;-71
2023/08/25 09:54:15;;;;;;;4.80;3.60;;;;;;;21.45;100.00;97672.56;5055549;28;20193;-71
2023/08/25 09:56:44;;;;;;;5.63;3.17;;;;;;;21.35;100.00;97688.16;5055621;28;20225;-71
2023/08/25 09:59:12;;;;;;;5.20;3.00;;;;;;;21.25;100.00;97691.03;5055688;28;20231;-71
2023/08/25 10:01:40;;;;;;;3.80;3.40;;;;;;;21.40;100.00;97685.34;5055159;28;20205;-71
2023/08/25 10:04:07;;;;;;;3.50;3.17;;;;;;;21.42;100.00;97699.38;5055295;28;20209;-71
2023/08/25 10:06:36;;;;;;;3.20;2.90;;;;;;;21.22;100.00;97700.53;5055344;28;20609;-70
2023/08/25 10:09:04;;;;;;;4.60;3.43;;;;;;;21.34;100.00;97702.78;5054447;28;20232;-70
2023/08/25 10:11:36;;;;;;;3.73;3.00;;;;;;;21.30;100.00;97697.13;5054960;28;20211;-71
2023/08/25 10:14:05;;;;;;;4.57;3.23;;;;;;;21.38;100.00;97714.63;5055190;28;20190;-71
2023/08/25 10:16:38;;;;;;;6.07;3.27;;;;;;;21.42;100.00;97710.19;5054713;28;20222;-71
2023/08/25 10:19:06;;;;;;;3.57;3.20;;;;;;;21.53;100.00;97698.91;5055233;28;20228;-71
2023/08/25 10:21:34;;;;;;;3.70;3.37;;;;;;;21.60;100.00;97702.03;5055129;28;20205;-71
2023/08/25 10:24:02;;;;;;;4.13;3.10;;;;;;;21.78;100.00;97689.56;5054968;28;20205;-71
2023/08/25 10:26:30;;;;;;;3.37;3.00;;;;;;;21.76;100.00;97691.78;5054365;28;20607;-71
2023/08/25 10:28:57;;;;;;;4.20;2.90;;;;;;;21.76;100.00;97681.75;5054759;28;20225;-71
2023/08/25 10:31:25;;;;;;;3.33;2.47;;;;;;;21.72;100.00;97693.47;5054800;28;20201;-71
2023/08/25 10:33:53;;;;;;;5.53;2.97;;;;;;;21.61;100.00;97717.16;5054830;28;20236;-71
2023/08/25 10:36:21;;;;;;;3.67;2.80;;;;;;;21.66;100.00;97713.56;5054450;28;20217;-71
2023/08/25 10:38:53;;;;;;;4.03;3.03;;;;;;;21.67;100.00;97734.13;5054265;28;20803;-71
2023/08/25 10:41:20;;;;;;;3.70;2.87;;;;;;;21.72;100.00;97740.28;5054795;28;20189;-72
2023/08/25 10:43:50;;;;;;;5.50;3.00;;;;;;;21.72;100.00;97725.94;5054550;28;20217;-72
2023/08/25 10:46:21;;;;;;;4.67;2.93;;;;;;;21.69;100.00;97731.91;5054699;28;20298;-72
2023/08/25 10:48:49;;;;;;;4.90;2.97;;;;;;;21.76;100.00;97732.38;5054509;28;20273;-72
2023/08/25 10:51:20;;;;;;;3.73;3.00;;;;;;;21.73;100.00;97728.34;5054563;28;20617;-72
2023/08/25 10:53:56;;;;;;;3.47;2.93;;;;;;;21.82;100.00;97737.38;5054191;28;20209;-72
2023/08/25 10:56:25;;;;;;;3.23;2.90;;;;;;;21.78;100.00;97740.97;5054713;28;20221;-72
2023/08/25 10:59:01;;;;;;;3.17;2.87;;;;;;;21.82;100.00;97726.56;5054168;28;20224;-72
2023/08/25 11:01:53;;;;;;;3.40;3.10;;;;;;;21.84;100.00;97728.97;5054652;28;20276;-71
2023/08/25 11:04:22;;;;;;;4.67;3.00;;;;;;;21.85;100.00;97720.56;5053826;28;20551;-72
2023/08/25 11:06:50;;;;;;;3.10;2.80;;;;;;;22.00;100.00;97724.88;5053638;28;20237;-72
2023/08/25 11:09:20;;;;;;;3.07;2.63;;;;;;;22.06;100.00;97716.34;5054277;28;20312;-71
2023/08/25 11:11:56;;;;;;;3.80;2.50;;;;;;;22.09;100.00;97717.66;5053908;28;20201;-71
2023/08/25 11:14:30;;;;;;;5.43;2.80;;;;;;;22.14;100.00;97715.66;5054284;28;20189;-71
2023/08/25 11:16:58;;;;;;;3.00;2.80;;;;;;;22.32;100.00;97697.69;5053605;28;20970;-71
2023/08/25 11:19:26;;;;;;;3.23;3.00;;;;;;;22.39;100.00;97693.47;5054210;28;20506;-71
2023/08/25 11:22:01;;;;;;;3.30;3.00;;;;;;;22.37;100.00;97701.09;5053997;28;20232;-70
2023/08/25 11:24:29;;;;;;;3.27;2.80;;;;;;;22.50;100.00;97702.22;5054325;28;20192;-70
2023/08/25 11:26:56;;;;;;;3.67;3.20;;;;;;;22.45;100.00;97723.97;5053952;28;20282;-70